sensor_id;sensor_type;location;lat;lon;timestamp;pressure;altitude;pressure_sealevel;temperature;humidity
30073;BME280;16897;52.422;13.678;2023-04-03T00:01:58;102621.25;;;4.60;54.49
30073;BME280;16897;52.422;13.678;2023-04-03T00:05:59;102644.53;;;4.71;54.62
30073;BME280;16897;52.422;13.678;2023-04-03T00:10:01;102644.53;;;4.70;54.52
30073;BME280;16897;52.422;13.678;2023-04-03T00:14:02;102619.50;;;4.56;54.49
30073;BME280;16897;52.422;13.678;2023-04-03T00:18:04;102613.47;;;4.48;54.39
30073;BME280;16897;52.422;13.678;2023-04-03T00:22:06;102627.28;;;4.56;54.56
30073;BME280;16897;52.422;13.678;2023-04-03T00:26:08;102601.41;;;4.41;54.61
30073;BME280;16897;52.422;13.678;2023-04-03T00:30:11;102655.78;;;4.70;54.41
30073;BME280;16897;52.422;13.678;2023-04-03T00:34:14;102655.78;;;4.70;54.66
30073;BME280;16897;52.422;13.678;2023-04-03T00:38:16;102624.69;;;4.56;54.50
30073;BME280;16897;52.422;13.678;2023-04-03T00:42:17;102636.78;;;4.60;54.65
30073;BME280;16897;52.422;13.678;2023-04-03T00:46:19;102647.13;;;4.70;54.41
30073;BME280;16897;52.422;13.678;2023-04-03T00:50:21;102643.66;;;4.61;54.55
30073;BME280;16897;52.422;13.678;2023-04-03T00:54:23;102656.63;;;4.63;54.46
30073;BME280;16897;52.422;13.678;2023-04-03T00:58:33;102658.34;;;4.69;54.49
30073;BME280;16897;52.422;13.678;2023-04-03T01:02:38;102647.13;;;4.62;54.59
30073;BME280;16897;52.422;13.678;2023-04-03T01:06:43;102645.41;;;4.59;54.46
30073;BME280;16897;52.422;13.678;2023-04-03T01:10:45;102655.75;;;4.67;54.44
30073;BME280;16897;52.422;13.678;2023-04-03T01:14:58;102653.16;;;4.61;54.46
30073;BME280;16897;52.422;13.678;2023-04-03T01:19:01;102654.00;;;4.61;54.47
30073;BME280;16897;52.422;13.678;2023-04-03T01:27:14;102635.03;;;4.47;54.57
30073;BME280;16897;52.422;13.678;2023-04-03T01:35:48;102654.88;;;4.59;54.44
30073;BME280;16897;52.422;13.678;2023-04-03T01:39:51;102648.00;;;4.52;54.46
30073;BME280;16897;52.422;13.678;2023-04-03T01:43:52;102665.25;;;4.57;54.28
30073;BME280;16897;52.422;13.678;2023-04-03T01:47:54;102653.16;;;4.50;54.27
30073;BME280;16897;52.422;13.678;2023-04-03T01:51:59;102661.78;;;4.55;54.34
30073;BME280;16897;52.422;13.678;2023-04-03T01:56:01;102644.50;;;4.42;54.62
30073;BME280;16897;52.422;13.678;2023-04-03T02:00:05;102664.34;;;4.51;54.52
30073;BME280;16897;52.422;13.678;2023-04-03T02:04:14;102659.19;;;4.38;54.51
30073;BME280;16897;52.422;13.678;2023-04-03T02:08:16;102668.66;;;4.42;54.34
30073;BME280;16897;52.422;13.678;2023-04-03T02:12:19;102674.69;;;4.48;54.44
30073;BME280;16897;52.422;13.678;2023-04-03T02:16:21;102665.19;;;4.37;54.53
30073;BME280;16897;52.422;13.678;2023-04-03T02:20:24;102632.41;;;4.18;54.49
30073;BME280;16897;52.422;13.678;2023-04-03T02:24:25;102647.94;;;4.16;54.32
30073;BME280;16897;52.422;13.678;2023-04-03T02:28:27;102694.53;;;4.42;54.40
30073;BME280;16897;52.422;13.678;2023-04-03T02:32:28;102697.09;;;4.36;54.46
30073;BME280;16897;52.422;13.678;2023-04-03T02:36:31;102685.88;;;4.30;54.32
30073;BME280;16897;52.422;13.678;2023-04-03T02:40:34;102692.78;;;4.25;54.50
30073;BME280;16897;52.422;13.678;2023-04-03T02:44:36;102694.50;;;4.27;54.30
30073;BME280;16897;52.422;13.678;2023-04-03T02:48:37;102691.00;;;4.20;54.21
30073;BME280;16897;52.422;13.678;2023-04-03T02:52:39;102703.97;;;4.22;54.46
30073;BME280;16897;52.422;13.678;2023-04-03T02:56:41;102674.56;;;3.98;54.50
30073;BME280;16897;52.422;13.678;2023-04-03T03:00:43;102713.41;;;4.15;54.30
30073;BME280;16897;52.422;13.678;2023-04-03T03:04:44;102720.31;;;4.18;54.35
30073;BME280;16897;52.422;13.678;2023-04-03T03:08:46;102703.03;;;4.05;54.45
30073;BME280;16897;52.422;13.678;2023-04-03T03:12:48;102718.56;;;4.09;54.51
30073;BME280;16897;52.422;13.678;2023-04-03T03:16:49;102694.34;;;3.87;54.28
30073;BME280;16897;52.422;13.678;2023-04-03T03:20:52;102690.00;;;3.79;54.27
30073;BME280;16897;52.422;13.678;2023-04-03T03:24:54;102731.44;;;3.98;54.50
30073;BME280;16897;52.422;13.678;2023-04-03T03:28:56;102724.50;;;3.90;54.38
30073;BME280;16897;52.422;13.678;2023-04-03T03:32:58;102734.88;;;3.94;54.29
30073;BME280;16897;52.422;13.678;2023-04-03T03:36:59;102708.94;;;3.77;54.36
30073;BME280;16897;52.422;13.678;2023-04-03T03:41:01;102731.38;;;3.85;54.48
30073;BME280;16897;52.422;13.678;2023-04-03T03:45:05;102727.88;;;3.76;54.41
30073;BME280;16897;52.422;13.678;2023-04-03T03:49:07;102738.25;;;3.83;54.48
30073;BME280;16897;52.422;13.678;2023-04-03T03:53:09;102728.72;;;3.74;54.60
30073;BME280;16897;52.422;13.678;2023-04-03T03:57:11;102723.53;;;3.68;54.44
30073;BME280;16897;52.422;13.678;2023-04-03T04:01:13;102731.31;;;3.71;54.48
30073;BME280;16897;52.422;13.678;2023-04-03T04:05:19;102732.16;;;3.68;54.33
30073;BME280;16897;52.422;13.678;2023-04-03T04:09:21;102725.22;;;3.61;54.42
30073;BME280;16897;52.422;13.678;2023-04-03T04:13:23;102707.06;;;3.50;54.52
30073;BME280;16897;52.422;13.678;2023-04-03T04:17:26;102712.22;;;3.49;54.57
30073;BME280;16897;52.422;13.678;2023-04-03T04:21:28;102740.69;;;3.58;54.47
30073;BME280;16897;52.422;13.678;2023-04-03T04:25:29;102742.38;;;3.53;54.40
30073;BME280;16897;52.422;13.678;2023-04-03T04:29:31;102732.84;;;3.44;54.30
30073;BME280;16897;52.422;13.678;2023-04-03T04:33:37;102755.31;;;3.51;54.48
30073;BME280;16897;52.422;13.678;2023-04-03T04:37:41;102737.97;;;3.40;54.47
30073;BME280;16897;52.422;13.678;2023-04-03T04:41:44;102724.97;;;3.24;54.61
30073;BME280;16897;52.422;13.678;2023-04-03T04:45:46;102750.00;;;3.36;54.46
30073;BME280;16897;52.422;13.678;2023-04-03T04:49:49;102762.97;;;3.41;54.63
30073;BME280;16897;52.422;13.678;2023-04-03T04:53:51;102769.00;;;3.41;54.53
30073;BME280;16897;52.422;13.678;2023-04-03T04:57:54;102700.66;;;2.99;54.45
30073;BME280;16897;52.422;13.678;2023-04-03T05:01:57;102764.66;;;3.36;54.48
30073;BME280;16897;52.422;13.678;2023-04-03T05:05:59;102766.38;;;3.35;54.57
30073;BME280;16897;52.422;13.678;2023-04-03T05:10:02;102771.53;;;3.37;54.55
30073;BME280;16897;52.422;13.678;2023-04-03T05:14:04;102761.16;;;3.27;54.40
30073;BME280;16897;52.422;13.678;2023-04-03T05:18:08;102768.03;;;3.28;54.38
30073;BME280;16897;52.422;13.678;2023-04-03T05:22:10;102774.03;;;3.29;54.42
30073;BME280;16897;52.422;13.678;2023-04-03T05:26:12;102765.38;;;3.21;54.47
30073;BME280;16897;52.422;13.678;2023-04-03T05:30:14;102761.06;;;3.21;54.53
30073;BME280;16897;52.422;13.678;2023-04-03T05:34:17;102792.19;;;3.35;54.54
30073;BME280;16897;52.422;13.678;2023-04-03T05:38:20;102775.78;;;3.27;54.72
30073;BME280;16897;52.422;13.678;2023-04-03T05:42:23;102773.16;;;3.22;54.74
30073;BME280;16897;52.422;13.678;2023-04-03T05:46:25;102764.53;;;3.19;54.75
30073;BME280;16897;52.422;13.678;2023-04-03T05:50:30;102791.34;;;3.36;54.62
30073;BME280;16897;52.422;13.678;2023-04-03T05:54:32;102805.16;;;3.43;54.68
30073;BME280;16897;52.422;13.678;2023-04-03T05:58:48;102793.94;;;3.38;54.68
30073;BME280;16897;52.422;13.678;2023-04-03T06:02:50;102809.50;;;3.47;54.76
30073;BME280;16897;52.422;13.678;2023-04-03T06:06:57;102814.69;;;3.50;54.88
30073;BME280;16897;52.422;13.678;2023-04-03T06:11:00;102781.81;;;3.32;54.84
30073;BME280;16897;52.422;13.678;2023-04-03T06:15:03;102775.84;;;3.36;55.05
30073;BME280;16897;52.422;13.678;2023-04-03T06:19:07;102798.38;;;3.59;54.98
30073;BME280;16897;52.422;13.678;2023-04-03T06:23:08;102809.69;;;3.73;54.88
30073;BME280;16897;52.422;13.678;2023-04-03T06:27:10;102793.28;;;3.66;54.98
30073;BME280;16897;52.422;13.678;2023-04-03T06:31:12;102754.41;;;3.46;54.90
30073;BME280;16897;52.422;13.678;2023-04-03T06:35:14;102813.28;;;3.95;54.88
30073;BME280;16897;52.422;13.678;2023-04-03T06:39:17;102813.28;;;3.98;54.93
30073;BME280;16897;52.422;13.678;2023-04-03T06:43:20;102826.25;;;4.07;54.83
30073;BME280;16897;52.422;13.678;2023-04-03T06:47:22;102765.78;;;3.74;54.97
30073;BME280;16897;52.422;13.678;2023-04-03T06:51:26;102825.47;;;4.16;55.01
30073;BME280;16897;52.422;13.678;2023-04-03T06:55:29;102783.09;;;3.92;54.88
30073;BME280;16897;52.422;13.678;2023-04-03T06:59:31;102833.28;;;4.27;55.01
30073;BME280;16897;52.422;13.678;2023-04-03T07:03:32;102817.75;;;4.22;54.92
30073;BME280;16897;52.422;13.678;2023-04-03T07:07:34;102846.28;;;4.40;55.06
30073;BME280;16897;52.422;13.678;2023-04-03T07:11:36;102833.34;;;4.40;54.93
30073;BME280;16897;52.422;13.678;2023-04-03T07:15:38;102848.06;;;4.58;55.14
30073;BME280;16897;52.422;13.678;2023-04-03T07:19:39;102806.63;;;4.44;54.86
30073;BME280;16897;52.422;13.678;2023-04-03T07:23:40;102865.41;;;4.79;54.92
30073;BME280;16897;52.422;13.678;2023-04-03T07:27:42;102858.50;;;4.86;54.55
30073;BME280;16897;52.422;13.678;2023-04-03T07:31:43;102866.31;;;4.97;54.55
30073;BME280;16897;52.422;13.678;2023-04-03T07:35:46;102853.38;;;4.89;54.60
30073;BME280;16897;52.422;13.678;2023-04-03T07:39:47;102817.09;;;4.77;54.25
30073;BME280;16897;52.422;13.678;2023-04-03T07:43:49;102861.16;;;5.06;54.24
30073;BME280;16897;52.422;13.678;2023-04-03T07:47:51;102875.00;;;5.26;54.48
30073;BME280;16897;52.422;13.678;2023-04-03T07:51:52;102850.84;;;5.21;54.13
30073;BME280;16897;52.422;13.678;2023-04-03T07:55:55;102869.84;;;5.36;54.03
30073;BME280;16897;52.422;13.678;2023-04-03T07:59:58;102876.78;;;5.46;53.97
30073;BME280;16897;52.422;13.678;2023-04-03T08:04:00;102862.09;;;5.36;53.90
30073;BME280;16897;52.422;13.678;2023-04-03T08:08:02;102856.91;;;5.39;53.80
30073;BME280;16897;52.422;13.678;2023-04-03T08:12:04;102867.28;;;5.51;53.69
30073;BME280;16897;52.422;13.678;2023-04-03T08:16:13;102880.22;;;5.60;53.82
30073;BME280;16897;52.422;13.678;2023-04-03T08:20:18;102856.91;;;5.54;53.80
30073;BME280;16897;52.422;13.678;2023-04-03T08:24:19;102851.72;;;5.66;53.67
30073;BME280;16897;52.422;13.678;2023-04-03T08:28:21;102824.94;;;5.69;53.29
30073;BME280;16897;52.422;13.678;2023-04-03T08:32:23;102870.72;;;6.01;53.08
30073;BME280;16897;52.422;13.678;2023-04-03T08:36:27;102881.94;;;6.19;52.96
30073;BME280;16897;52.422;13.678;2023-04-03T08:40:29;102863.78;;;6.23;52.84
30073;BME280;16897;52.422;13.678;2023-04-03T08:48:48;102847.34;;;6.17;52.63
30073;BME280;16897;52.422;13.678;2023-04-03T08:52:56;102878.44;;;6.33;52.92
30073;BME280;16897;52.422;13.678;2023-04-03T08:57:00;102861.16;;;6.29;52.71
30073;BME280;16897;52.422;13.678;2023-04-03T09:01:05;102846.50;;;6.22;52.74
30073;BME280;16897;52.422;13.678;2023-04-03T09:05:22;102841.25;;;6.31;52.82
30073;BME280;16897;52.422;13.678;2023-04-03T09:09:32;102866.28;;;6.52;52.64
30073;BME280;16897;52.422;13.678;2023-04-03T09:18:07;102854.16;;;6.48;52.48
30073;BME280;16897;52.422;13.678;2023-04-03T09:22:23;102843.81;;;6.46;52.54
30073;BME280;16897;52.422;13.678;2023-04-03T09:26:51;102839.53;;;6.37;52.05
30073;BME280;16897;52.422;13.678;2023-04-03T09:30:49;102863.69;;;6.47;52.24
30073;BME280;16897;52.422;13.678;2023-04-03T09:34:51;102817.06;;;6.21;52.10
30073;BME280;16897;52.422;13.678;2023-04-03T09:39:15;102869.72;;;6.55;52.29
30073;BME280;16897;52.422;13.678;2023-04-03T09:47:22;102870.56;;;6.60;51.96
30073;BME280;16897;52.422;13.678;2023-04-03T09:51:27;102848.97;;;6.52;51.91
30073;BME280;16897;52.422;13.678;2023-04-03T09:55:29;102852.41;;;6.60;52.12
30073;BME280;16897;52.422;13.678;2023-04-03T09:59:31;102853.19;;;6.78;52.00
30073;BME280;16897;52.422;13.678;2023-04-03T10:03:34;102809.97;;;6.63;51.93
30073;BME280;16897;52.422;13.678;2023-04-03T10:07:37;102843.63;;;6.84;51.81
30073;BME280;16897;52.422;13.678;2023-04-03T10:11:49;102860.88;;;6.95;51.67
30073;BME280;16897;52.422;13.678;2023-04-03T10:16:13;102836.69;;;6.85;51.58
30073;BME280;16897;52.422;13.678;2023-04-03T10:29:13;102827.09;;;6.98;51.59
30073;BME280;16897;52.422;13.678;2023-04-03T10:33:47;102832.25;;;7.05;51.58
30073;BME280;16897;52.422;13.678;2023-04-03T10:47:01;102821.03;;;6.96;51.27
30073;BME280;16897;52.422;13.678;2023-04-03T10:59:48;102809.69;;;7.12;51.93
30073;BME280;16897;52.422;13.678;2023-04-03T11:03:58;102812.22;;;7.20;51.64
30073;BME280;16897;52.422;13.678;2023-04-03T11:08:28;102808.75;;;7.24;51.75
30073;BME280;16897;52.422;13.678;2023-04-03T11:12:41;102813.03;;;7.29;51.68
30073;BME280;16897;52.422;13.678;2023-04-03T11:16:48;102806.13;;;7.25;51.70
30073;BME280;16897;52.422;13.678;2023-04-03T11:21:11;102812.13;;;7.29;51.53
30073;BME280;16897;52.422;13.678;2023-04-03T11:25:24;102803.50;;;7.28;51.73
30073;BME280;16897;52.422;13.678;2023-04-03T11:29:32;102806.97;;;7.26;51.63
30073;BME280;16897;52.422;13.678;2023-04-03T11:38:36;102804.41;;;7.24;51.47
30073;BME280;16897;52.422;13.678;2023-04-03T11:42:42;102800.91;;;7.28;51.75
30073;BME280;16897;52.422;13.678;2023-04-03T11:46:54;102784.47;;;7.25;51.67
30073;BME280;16897;52.422;13.678;2023-04-03T11:59:24;102773.91;;;7.45;51.56
30073;BME280;16897;52.422;13.678;2023-04-03T12:07:28;102791.16;;;7.52;51.60
30073;BME280;16897;52.422;13.678;2023-04-03T12:11:30;102786.00;;;7.49;51.47
30073;BME280;16897;52.422;13.678;2023-04-03T12:19:38;102789.47;;;7.48;51.45
30073;BME280;16897;52.422;13.678;2023-04-03T12:28:09;102772.19;;;7.42;51.52
30073;BME280;16897;52.422;13.678;2023-04-03T12:36:29;102787.59;;;7.64;51.42
30073;BME280;16897;52.422;13.678;2023-04-03T12:45:00;102771.19;;;7.57;51.25
30073;BME280;16897;52.422;13.678;2023-04-03T12:49:12;102754.78;;;7.50;51.35
30073;BME280;16897;52.422;13.678;2023-04-03T12:53:36;102749.53;;;7.57;51.34
30073;BME280;16897;52.422;13.678;2023-04-03T12:57:40;102758.09;;;7.68;51.31
30073;BME280;16897;52.422;13.678;2023-04-03T13:01:42;102757.19;;;7.69;51.36
30073;BME280;16897;52.422;13.678;2023-04-03T13:05:44;102745.91;;;7.71;51.46
30073;BME280;16897;52.422;13.678;2023-04-03T13:09:55;102742.44;;;7.69;51.15
30073;BME280;16897;52.422;13.678;2023-04-03T13:13:59;102722.63;;;7.62;51.32
30073;BME280;16897;52.422;13.678;2023-04-03T13:18:01;102765.69;;;7.85;51.27
30073;BME280;16897;52.422;13.678;2023-04-03T13:22:08;102746.72;;;7.78;51.28
30073;BME280;16897;52.422;13.678;2023-04-03T13:26:20;102750.13;;;7.80;51.26
30073;BME280;16897;52.422;13.678;2023-04-03T13:30:34;102753.50;;;7.91;51.33
30073;BME280;16897;52.422;13.678;2023-04-03T13:34:40;102747.34;;;7.98;51.34
30073;BME280;16897;52.422;13.678;2023-04-03T13:38:42;102742.16;;;7.95;51.16
30073;BME280;16897;52.422;13.678;2023-04-03T13:42:44;102688.75;;;7.67;51.15
30073;BME280;16897;52.422;13.678;2023-04-03T13:46:46;102740.38;;;8.01;51.24
30073;BME280;16897;52.422;13.678;2023-04-03T13:55:03;102721.47;;;7.85;50.93
30073;BME280;16897;52.422;13.678;2023-04-03T14:07:30;102675.97;;;7.48;50.98
30073;BME280;16897;52.422;13.678;2023-04-03T14:11:32;102710.34;;;7.73;50.96
30073;BME280;16897;52.422;13.678;2023-04-03T14:15:35;102681.97;;;7.53;50.72
30073;BME280;16897;52.422;13.678;2023-04-03T14:19:37;102721.53;;;7.82;50.81
30073;BME280;16897;52.422;13.678;2023-04-03T14:23:39;102725.75;;;7.90;50.87
30073;BME280;16897;52.422;13.678;2023-04-03T14:27:43;102713.59;;;7.94;51.04
30073;BME280;16897;52.422;13.678;2023-04-03T14:31:46;102696.25;;;7.93;50.90
30073;BME280;16897;52.422;13.678;2023-04-03T14:35:49;102653.94;;;7.77;50.82
30073;BME280;16897;52.422;13.678;2023-04-03T14:39:55;102707.38;;;8.06;50.92
30073;BME280;16897;52.422;13.678;2023-04-03T14:43:57;102694.41;;;8.01;50.96
30073;BME280;16897;52.422;13.678;2023-04-03T14:47:59;102678.97;;;7.89;50.97
30073;BME280;16897;52.422;13.678;2023-04-03T14:52:00;102666.91;;;7.82;50.90
30073;BME280;16897;52.422;13.678;2023-04-03T14:56:02;102695.28;;;8.00;51.01
30073;BME280;16897;52.422;13.678;2023-04-03T15:00:11;102702.13;;;8.09;50.90
30073;BME280;16897;52.422;13.678;2023-04-03T15:04:22;102718.56;;;8.11;50.96
30073;BME280;16897;52.422;13.678;2023-04-03T15:08:25;102708.25;;;8.03;50.73
30073;BME280;16897;52.422;13.678;2023-04-03T15:12:27;102703.91;;;8.04;50.82
30073;BME280;16897;52.422;13.678;2023-04-03T15:16:28;102709.13;;;8.04;50.69
30073;BME280;16897;52.422;13.678;2023-04-03T15:20:31;102704.00;;;7.97;50.77
30073;BME280;16897;52.422;13.678;2023-04-03T15:24:34;102696.28;;;7.90;50.93
30073;BME280;16897;52.422;13.678;2023-04-03T15:28:38;102694.56;;;7.89;50.74
30073;BME280;16897;52.422;13.678;2023-04-03T15:32:40;102685.94;;;7.85;50.84
30073;BME280;16897;52.422;13.678;2023-04-03T15:36:41;102704.91;;;7.95;50.88
30073;BME280;16897;52.422;13.678;2023-04-03T15:40:42;102652.38;;;7.64;50.73
30073;BME280;16897;52.422;13.678;2023-04-03T15:44:45;102666.16;;;7.72;51.00
30073;BME280;16897;52.422;13.678;2023-04-03T15:48:46;102682.50;;;7.82;50.93
30073;BME280;16897;52.422;13.678;2023-04-03T15:52:48;102665.38;;;7.65;50.81
30073;BME280;16897;52.422;13.678;2023-04-03T15:56:49;102686.13;;;7.67;50.70
30073;BME280;16897;52.422;13.678;2023-04-03T16:00:50;102699.91;;;7.78;50.79
30073;BME280;16897;52.422;13.678;2023-04-03T16:04:54;102694.69;;;7.78;50.75
30073;BME280;16897;52.422;13.678;2023-04-03T16:08:56;102692.09;;;7.76;50.85
30073;BME280;16897;52.422;13.678;2023-04-03T16:12:59;102679.91;;;7.80;51.01
30073;BME280;16897;52.422;13.678;2023-04-03T16:17:00;102692.88;;;7.86;51.03
30073;BME280;16897;52.422;13.678;2023-04-03T16:21:02;102704.00;;;7.97;50.86
30073;BME280;16897;52.422;13.678;2023-04-03T16:25:05;102674.66;;;7.86;50.74
30073;BME280;16897;52.422;13.678;2023-04-03T16:29:07;102698.75;;;7.99;50.75
30073;BME280;16897;52.422;13.678;2023-04-03T16:33:09;102702.25;;;7.96;50.64
30073;BME280;16897;52.422;13.678;2023-04-03T16:37:11;102700.63;;;7.89;50.67
30073;BME280;16897;52.422;13.678;2023-04-03T16:41:12;102715.38;;;7.87;50.59
30073;BME280;16897;52.422;13.678;2023-04-03T16:45:14;102713.75;;;7.79;50.81
30073;BME280;16897;52.422;13.678;2023-04-03T16:49:15;102707.66;;;7.80;50.67
30073;BME280;16897;52.422;13.678;2023-04-03T16:53:17;102705.97;;;7.79;50.67
30073;BME280;16897;52.422;13.678;2023-04-03T16:57:18;102707.75;;;7.75;50.85
30073;BME280;16897;52.422;13.678;2023-04-03T17:01:21;102704.28;;;7.73;50.81
30073;BME280;16897;52.422;13.678;2023-04-03T17:05:23;102703.47;;;7.66;50.75
30073;BME280;16897;52.422;13.678;2023-04-03T17:09:25;102712.13;;;7.67;50.90
30073;BME280;16897;52.422;13.678;2023-04-03T17:13:27;102717.34;;;7.70;50.67
30073;BME280;16897;52.422;13.678;2023-04-03T17:17:32;102650.97;;;7.35;50.81
30073;BME280;16897;52.422;13.678;2023-04-03T17:21:34;102684.47;;;7.61;50.82
30073;BME280;16897;52.422;13.678;2023-04-03T17:25:35;102681.09;;;7.56;50.78
30073;BME280;16897;52.422;13.678;2023-04-03T17:29:37;102696.63;;;7.62;50.64
30073;BME280;16897;52.422;13.678;2023-04-03T17:33:39;102714.84;;;7.59;50.93
30073;BME280;16897;52.422;13.678;2023-04-03T17:37:40;102651.94;;;7.25;50.69
30073;BME280;16897;52.422;13.678;2023-04-03T17:41:42;102705.38;;;7.52;50.75
30073;BME280;16897;52.422;13.678;2023-04-03T17:45:46;102702.81;;;7.47;50.83
30073;BME280;16897;52.422;13.678;2023-04-03T17:49:47;102708.09;;;7.41;50.83
30073;BME280;16897;52.422;13.678;2023-04-03T17:53:49;102711.63;;;7.37;50.88
30073;BME280;16897;52.422;13.678;2023-04-03T17:57:50;102708.19;;;7.32;50.67
30073;BME280;16897;52.422;13.678;2023-04-03T18:01:52;102683.28;;;7.09;50.81
30073;BME280;16897;52.422;13.678;2023-04-03T18:05:53;102669.56;;;6.97;50.66
30073;BME280;16897;52.422;13.678;2023-04-03T18:09:55;102718.69;;;7.21;50.91
30073;BME280;16897;52.422;13.678;2023-04-03T18:13:58;102710.91;;;7.17;50.81
30073;BME280;16897;52.422;13.678;2023-04-03T18:18:01;102708.41;;;7.07;50.92
30073;BME280;16897;52.422;13.678;2023-04-03T18:22:05;102728.22;;;7.18;50.54
30073;BME280;16897;52.422;13.678;2023-04-03T18:26:09;102728.25;;;7.15;50.57
30073;BME280;16897;52.422;13.678;2023-04-03T18:30:14;102711.97;;;6.97;50.69
30073;BME280;16897;52.422;13.678;2023-04-03T18:34:16;102736.94;;;7.12;50.62
30073;BME280;16897;52.422;13.678;2023-04-03T18:38:17;102717.94;;;7.04;50.68
30073;BME280;16897;52.422;13.678;2023-04-03T18:42:20;102724.97;;;6.94;50.54
30073;BME280;16897;52.422;13.678;2023-04-03T18:46:23;102743.06;;;7.03;50.59
30073;BME280;16897;52.422;13.678;2023-04-03T18:50:24;102734.47;;;6.97;50.57
30073;BME280;16897;52.422;13.678;2023-04-03T18:54:26;102702.59;;;6.75;50.67
30073;BME280;16897;52.422;13.678;2023-04-03T18:58:28;102732.78;;;6.94;50.59
30073;BME280;16897;52.422;13.678;2023-04-03T19:02:29;102732.75;;;6.93;50.63
30073;BME280;16897;52.422;13.678;2023-04-03T19:06:34;102687.94;;;6.66;50.68
30073;BME280;16897;52.422;13.678;2023-04-03T19:10:36;102693.16;;;6.68;50.58
30073;BME280;16897;52.422;13.678;2023-04-03T19:14:38;102693.13;;;6.71;50.66
30073;BME280;16897;52.422;13.678;2023-04-03T19:18:40;102698.28;;;6.74;50.67
30073;BME280;16897;52.422;13.678;2023-04-03T19:22:41;102712.06;;;6.82;50.84
30073;BME280;16897;52.422;13.678;2023-04-03T19:26:45;102733.59;;;6.96;50.71
30073;BME280;16897;52.422;13.678;2023-04-03T19:30:47;102671.53;;;6.61;50.88
30073;BME280;16897;52.422;13.678;2023-04-03T19:34:51;102731.03;;;6.95;50.83
30073;BME280;16897;52.422;13.678;2023-04-03T19:38:53;102634.53;;;6.37;50.70
30073;BME280;16897;52.422;13.678;2023-04-03T19:42:54;102711.19;;;6.86;50.68
30073;BME280;16897;52.422;13.678;2023-04-03T19:46:57;102712.00;;;6.88;50.93
30073;BME280;16897;52.422;13.678;2023-04-03T19:50:59;102708.59;;;6.83;50.94
30073;BME280;16897;52.422;13.678;2023-04-03T19:55:00;102692.25;;;6.69;50.88
30073;BME280;16897;52.422;13.678;2023-04-03T19:59:01;102730.22;;;6.85;50.72
30073;BME280;16897;52.422;13.678;2023-04-03T20:03:03;102723.31;;;6.84;50.67
30073;BME280;16897;52.422;13.678;2023-04-03T20:07:05;102694.91;;;6.62;50.62
30073;BME280;16897;52.422;13.678;2023-04-03T20:11:07;102704.44;;;6.62;50.63
30073;BME280;16897;52.422;13.678;2023-04-03T20:15:09;102716.53;;;6.64;50.75
30073;BME280;16897;52.422;13.678;2023-04-03T20:19:10;102726.06;;;6.62;50.90
30073;BME280;16897;52.422;13.678;2023-04-03T20:23:12;102706.25;;;6.49;50.80
30073;BME280;16897;52.422;13.678;2023-04-03T20:27:13;102717.50;;;6.45;50.92
30073;BME280;16897;52.422;13.678;2023-04-03T20:31:16;102727.88;;;6.51;50.84
30073;BME280;16897;52.422;13.678;2023-04-03T20:35:18;102708.03;;;6.38;50.77
30073;BME280;16897;52.422;13.678;2023-04-03T20:39:22;102707.22;;;6.33;50.79
30073;BME280;16897;52.422;13.678;2023-04-03T20:43:24;102695.16;;;6.19;50.83
30073;BME280;16897;52.422;13.678;2023-04-03T20:47:25;102719.31;;;6.31;50.84
30073;BME280;16897;52.422;13.678;2023-04-03T20:51:27;102718.47;;;6.30;51.03
30073;BME280;16897;52.422;13.678;2023-04-03T20:55:29;102712.38;;;6.31;50.87
30073;BME280;16897;52.422;13.678;2023-04-03T20:59:31;102713.31;;;6.23;51.03
30073;BME280;16897;52.422;13.678;2023-04-03T21:03:34;102696.91;;;6.17;50.83
30073;BME280;16897;52.422;13.678;2023-04-03T21:20:57;102692.69;;;5.93;50.89
30073;BME280;16897;52.422;13.678;2023-04-03T21:24:58;102706.47;;;6.05;50.85
30073;BME280;16897;52.422;13.678;2023-04-03T21:29:00;102660.78;;;5.68;50.84
30073;BME280;16897;52.422;13.678;2023-04-03T21:33:02;102703.09;;;5.81;50.94
30073;BME280;16897;52.422;13.678;2023-04-03T21:37:04;102718.63;;;5.89;50.84
30073;BME280;16897;52.422;13.678;2023-04-03T21:41:06;102703.97;;;5.75;50.92
30073;BME280;16897;52.422;13.678;2023-04-03T21:45:08;102711.72;;;5.77;51.13
30073;BME280;16897;52.422;13.678;2023-04-03T21:49:10;102716.91;;;5.80;51.12
30073;BME280;16897;52.422;13.678;2023-04-03T21:53:12;102655.69;;;5.41;50.83
30073;BME280;16897;52.422;13.678;2023-04-03T21:57:13;102715.22;;;5.68;50.85
30073;BME280;16897;52.422;13.678;2023-04-03T22:01:15;102705.72;;;5.66;51.03
30073;BME280;16897;52.422;13.678;2023-04-03T22:05:17;102701.41;;;5.59;51.06
30073;BME280;16897;52.422;13.678;2023-04-03T22:09:18;102704.88;;;5.58;51.03
30073;BME280;16897;52.422;13.678;2023-04-03T22:13:20;102699.69;;;5.53;51.11
30073;BME280;16897;52.422;13.678;2023-04-03T22:17:21;102697.13;;;5.44;50.82
30073;BME280;16897;52.422;13.678;2023-04-03T22:21:23;102697.16;;;5.33;50.79
30073;BME280;16897;52.422;13.678;2023-04-03T22:25:25;102699.75;;;5.30;50.88
30073;BME280;16897;52.422;13.678;2023-04-03T22:29:26;102675.59;;;5.00;51.01
30073;BME280;16897;52.422;13.678;2023-04-03T22:33:29;102695.44;;;5.09;50.87
30073;BME280;16897;52.422;13.678;2023-04-03T22:37:30;102707.53;;;5.13;51.03
30073;BME280;16897;52.422;13.678;2023-04-03T22:41:32;102706.69;;;5.00;50.90
30073;BME280;16897;52.422;13.678;2023-04-03T22:45:34;102717.03;;;4.94;51.02
30073;BME280;16897;52.422;13.678;2023-04-03T22:49:35;102723.91;;;4.97;51.11
30073;BME280;16897;52.422;13.678;2023-04-03T22:53:37;102688.53;;;4.74;51.17
30073;BME280;16897;52.422;13.678;2023-04-03T22:57:39;102721.34;;;4.92;51.25
30073;BME280;16897;52.422;13.678;2023-04-03T23:01:40;102712.69;;;4.88;51.20